Time;durP1;ratioP1;P1;durP2;ratioP2;P2;SDS_P1;SDS_P2;PMS_P1;PMS_P2;Temp;Humidity;BMP_temperature;BMP_pressure;BME280_temperature;BME280_humidity;BME280_pressure;Samples;Min_cycle;Max_cycle;Signal;HPM_P1;HPM_P2
2022/11/18 00:01:06;;;;;;;3.67;0.85;;;8.00;99.90;;;;;;5050290;28;20094;-64
2022/11/18 00:03:32;;;;;;;5.75;0.77;;;8.00;99.90;;;;;;5051542;28;20555;-64
2022/11/18 00:05:57;;;;;;;6.25;0.88;;;7.90;99.90;;;;;;5052042;28;20047;-64
2022/11/18 00:08:24;;;;;;;3.97;0.82;;;8.00;99.90;;;;;;5050057;28;20033;-63
2022/11/18 00:10:50;;;;;;;5.07;0.90;;;8.10;99.90;;;;;;5048611;28;20021;-64
2022/11/18 00:16:11;;;;;;;7.72;1.17;;;8.10;99.90;;;;;;5051865;28;20052;-64
2022/11/18 00:18:38;;;;;;;4.47;1.10;;;8.10;99.90;;;;;;5055688;28;20396;-64
2022/11/18 00:21:06;;;;;;;4.20;0.73;;;8.10;99.90;;;;;;5058345;28;20025;-64
2022/11/18 00:23:32;;;;;;;1.98;0.60;;;8.10;99.90;;;;;;5051329;28;20021;-63
2022/11/18 00:26:15;;;;;;;3.78;0.85;;;8.20;99.90;;;;;;5051923;28;20119;-63
2022/11/18 00:28:41;;;;;;;5.18;1.10;;;8.20;99.90;;;;;;5053421;28;20028;-64
2022/11/18 00:31:10;;;;;;;3.00;0.50;;;8.30;99.90;;;;;;5050368;28;20029;-64
2022/11/18 00:33:37;;;;;;;7.90;0.85;;;8.30;99.90;;;;;;5058131;28;20037;-63
2022/11/18 00:36:12;;;;;;;4.00;1.02;;;8.30;99.90;;;;;;5059765;28;20029;-64
2022/11/18 00:38:38;;;;;;;5.50;1.02;;;8.30;99.90;;;;;;5051504;28;20037;-64
2022/11/18 00:41:07;;;;;;;4.25;0.70;;;8.30;99.90;;;;;;5046068;28;20211;-63
2022/11/18 00:43:34;;;;;;;5.32;0.57;;;8.50;99.90;;;;;;5048210;28;20037;-64
2022/11/18 00:46:00;;;;;;;2.35;0.70;;;8.60;99.90;;;;;;5053464;28;20056;-64
2022/11/18 00:48:26;;;;;;;3.40;0.60;;;8.70;99.90;;;;;;5048389;28;20091;-64
2022/11/18 00:50:55;;;;;;;4.80;0.52;;;8.70;99.90;;;;;;5041675;28;20033;-64
2022/11/18 00:53:23;;;;;;;2.33;0.90;;;8.60;99.90;;;;;;5049723;28;20093;-65
2022/11/18 00:55:49;;;;;;;1.42;0.57;;;8.60;99.90;;;;;;5051248;28;20033;-63
2022/11/18 00:58:15;;;;;;;3.70;0.50;;;8.60;99.90;;;;;;5050841;28;20041;-64
2022/11/18 01:00:42;;;;;;;3.45;0.65;;;8.60;99.90;;;;;;5050006;28;20025;-65
2022/11/18 01:03:09;;;;;;;2.58;0.45;;;8.60;99.90;;;;;;5057072;28;20029;-65
2022/11/18 01:05:35;;;;;;;1.80;0.50;;;8.60;99.90;;;;;;5049153;28;20048;-64
2022/11/18 01:08:01;;;;;;;1.40;0.40;;;8.60;99.90;;;;;;5049933;28;20072;-64
2022/11/18 01:10:27;;;;;;;8.18;1.08;;;8.70;99.90;;;;;;5050364;28;20025;-64
2022/11/18 01:15:49;;;;;;;2.75;0.70;;;8.80;99.90;;;;;;5045026;28;20067;-65
2022/11/18 01:18:17;;;;;;;4.18;0.73;;;8.80;99.90;;;;;;5053506;28;20045;-64
2022/11/18 01:20:43;;;;;;;5.18;0.68;;;8.90;99.90;;;;;;5053826;28;20029;-65
2022/11/18 01:23:09;;;;;;;0.73;0.30;;;8.90;99.90;;;;;;5054747;28;20519;-64
2022/11/18 01:25:36;;;;;;;4.45;0.50;;;8.90;99.90;;;;;;5039901;28;20127;-65
2022/11/18 01:28:02;;;;;;;2.40;0.30;;;9.00;99.90;;;;;;5061585;28;20042;-65
2022/11/18 01:30:28;;;;;;;5.60;1.10;;;9.00;99.90;;;;;;5054376;28;20021;-64
2022/11/18 01:32:54;;;;;;;3.75;0.60;;;9.10;99.90;;;;;;5055558;28;20021;-64
2022/11/18 01:35:21;;;;;;;2.20;0.70;;;9.00;99.90;;;;;;5056884;28;20048;-64
2022/11/18 01:37:46;;;;;;;5.05;0.57;;;9.00;99.90;;;;;;5062547;28;20101;-65
2022/11/18 01:40:12;;;;;;;2.63;0.55;;;9.10;99.90;;;;;;5057865;28;20479;-64
2022/11/18 01:42:38;;;;;;;4.53;0.63;;;9.10;99.90;;;;;;5044560;28;20036;-63
2022/11/18 01:45:20;;;;;;;7.57;0.90;;;9.00;99.90;;;;;;5063601;28;20029;-64
2022/11/18 01:47:52;;;;;;;3.67;0.60;;;9.10;99.90;;;;;;5046529;28;20025;-64
2022/11/18 01:50:20;;;;;;;3.80;0.52;;;9.10;99.90;;;;;;5065794;28;20020;-65
2022/11/18 01:52:47;;;;;;;3.85;0.63;;;9.00;99.90;;;;;;5057974;28;20068;-64
2022/11/18 01:55:18;;;;;;;5.20;0.52;;;8.90;99.90;;;;;;5046604;28;20057;-65
2022/11/18 01:57:48;;;;;;;4.18;0.60;;;8.90;99.90;;;;;;5055845;28;20039;-64
2022/11/18 02:00:16;;;;;;;2.13;1.48;;;8.90;99.90;;;;;;5049217;28;20060;-65
2022/11/18 02:02:41;;;;;;;3.33;0.80;;;9.00;99.90;;;;;;5059716;28;20555;-64
2022/11/18 02:05:10;;;;;;;3.17;0.50;;;9.10;99.90;;;;;;5062970;28;20025;-64
2022/11/18 02:07:40;;;;;;;2.08;0.63;;;9.10;99.90;;;;;;5047601;28;20115;-64
2022/11/18 02:10:08;;;;;;;1.35;0.30;;;9.00;99.90;;;;;;5043062;28;20040;-64
2022/11/18 02:12:35;;;;;;;3.42;0.57;;;9.00;99.90;;;;;;5064882;28;20106;-64
2022/11/18 02:15:02;;;;;;;3.80;0.60;;;8.90;99.90;;;;;;5065140;28;20047;-64
2022/11/18 02:17:46;;;;;;;1.00;0.52;;;9.00;99.90;;;;;;5035491;28;20124;-64
2022/11/18 02:20:40;;;;;;;1.92;0.50;;;8.90;99.90;;;;;;5046952;28;20026;-64
2022/11/18 02:23:39;;;;;;;1.95;0.47;;;8.80;99.90;;;;;;5058206;28;20037;-64
2022/11/18 02:26:31;;;;;;;3.80;0.65;;;8.80;99.90;;;;;;5033860;28;20045;-66
2022/11/18 02:29:07;;;;;;;5.20;0.60;;;8.70;99.90;;;;;;5038802;28;20040;-64
2022/11/18 02:31:51;;;;;;;1.52;0.40;;;8.60;99.90;;;;;;5029907;28;20079;-64
2022/11/18 02:34:22;;;;;;;1.73;0.38;;;8.70;99.90;;;;;;5028426;28;20041;-64
2022/11/18 02:37:02;;;;;;;3.13;0.40;;;8.60;99.90;;;;;;5032878;28;20484;-64
2022/11/18 02:39:44;;;;;;;3.78;0.60;;;8.50;99.90;;;;;;5036049;28;20045;-64
2022/11/18 02:42:13;;;;;;;1.92;0.45;;;8.40;99.90;;;;;;5032406;28;20080;-64
2022/11/18 02:44:44;;;;;;;2.38;0.45;;;8.60;99.90;;;;;;5035446;28;20040;-64
2022/11/18 02:47:14;;;;;;;3.00;0.60;;;8.60;99.90;;;;;;5040086;28;20053;-65
2022/11/18 02:49:45;;;;;;;4.90;0.60;;;8.60;99.90;;;;;;5041860;28;20111;-65
2022/11/18 02:52:11;;;;;;;1.88;0.30;;;8.70;99.90;;;;;;5035276;28;20770;-65
2022/11/18 02:54:40;;;;;;;2.38;0.30;;;8.60;99.90;;;;;;5029600;28;20131;-65
2022/11/18 02:57:07;;;;;;;2.55;0.47;;;8.50;99.90;;;;;;5037337;28;20095;-65
2022/11/18 02:59:33;;;;;;;0.93;0.35;;;8.50;99.90;;;;;;5036447;28;20067;-65
2022/11/18 03:01:59;;;;;;;1.52;0.40;;;8.50;99.90;;;;;;5044895;28;20037;-64
2022/11/18 03:04:26;;;;;;;1.63;0.35;;;8.50;99.90;;;;;;5054360;28;20064;-64
2022/11/18 03:07:19;;;;;;;3.88;0.85;;;8.50;99.90;;;;;;5064339;28;20017;-64
2022/11/18 03:09:48;;;;;;;1.67;0.30;;;8.40;99.90;;;;;;5051363;28;20090;-64
2022/11/18 03:12:31;;;;;;;4.85;0.57;;;8.30;99.90;;;;;;5060700;28;20036;-64
2022/11/18 03:15:08;;;;;;;3.08;0.40;;;8.20;99.90;;;;;;5049489;28;20106;-64
2022/11/18 03:17:45;;;;;;;3.28;0.57;;;8.10;99.90;;;;;;5055379;28;20041;-64
2022/11/18 03:20:22;;;;;;;1.77;1.67;;;8.20;99.90;;;;;;5059082;28;20035;-64
2022/11/18 03:23:03;;;;;;;2.55;0.40;;;8.20;99.90;;;;;;5058193;28;20029;-64
2022/11/18 03:25:35;;;;;;;2.97;0.30;;;8.20;99.90;;;;;;5051119;28;20029;-64
2022/11/18 03:28:10;;;;;;;2.40;0.50;;;8.10;99.90;;;;;;5057828;28;20551;-64
2022/11/18 03:30:40;;;;;;;3.13;0.50;;;8.20;99.90;;;;;;5066619;28;20485;-64
2022/11/18 03:33:11;;;;;;;1.58;0.40;;;8.10;99.90;;;;;;5063476;28;20093;-65
2022/11/18 03:35:42;;;;;;;2.78;0.38;;;8.10;99.90;;;;;;5041776;28;20020;-64
2022/11/18 03:38:14;;;;;;;1.02;0.68;;;8.00;99.90;;;;;;5059444;28;20033;-64
2022/11/18 03:40:45;;;;;;;4.15;1.27;;;8.10;99.90;;;;;;5051291;28;20861;-64
2022/11/18 03:43:23;;;;;;;6.18;0.43;;;8.10;99.90;;;;;;5052541;28;20029;-64
2022/11/18 03:45:53;;;;;;;2.55;0.30;;;8.00;99.90;;;;;;5039004;28;20021;-64
2022/11/18 03:48:25;;;;;;;0.63;0.40;;;8.00;99.90;;;;;;5053272;28;20025;-65
2022/11/18 03:50:56;;;;;;;1.33;0.43;;;8.00;99.90;;;;;;5050557;28;20048;-64
2022/11/18 03:53:26;;;;;;;9.13;0.50;;;7.90;99.90;;;;;;5054236;28;20163;-64
2022/11/18 03:55:57;;;;;;;4.63;0.50;;;8.00;99.90;;;;;;5056981;28;20496;-63
2022/11/18 03:58:31;;;;;;;2.75;0.55;;;8.00;99.90;;;;;;5052375;28;20067;-64
2022/11/18 04:01:08;;;;;;;2.10;0.50;;;7.90;99.90;;;;;;5056431;28;20029;-64
2022/11/18 04:03:34;;;;;;;3.75;0.60;;;8.00;99.90;;;;;;5049754;28;20029;-65
2022/11/18 04:06:10;;;;;;;2.88;0.40;;;8.10;99.90;;;;;;5055003;28;20036;-65
2022/11/18 04:08:41;;;;;;;4.80;0.88;;;8.10;99.90;;;;;;5052211;28;20041;-64
2022/11/18 04:14:10;;;;;;;3.10;0.30;;;8.20;99.90;;;;;;5058949;28;20040;-64
2022/11/18 04:16:41;;;;;;;2.22;0.55;;;8.10;99.90;;;;;;5054336;28;20044;-65
2022/11/18 04:19:06;;;;;;;0.85;0.30;;;8.00;99.90;;;;;;5053558;28;20431;-64
2022/11/18 04:21:32;;;;;;;0.50;0.30;;;8.00;99.90;;;;;;5062192;28;20028;-64
2022/11/18 04:23:58;;;;;;;2.40;0.50;;;8.00;99.90;;;;;;5056242;28;20159;-64
2022/11/18 04:26:23;;;;;;;1.85;0.45;;;8.00;99.90;;;;;;5049077;28;20377;-64
2022/11/18 04:28:49;;;;;;;0.93;0.40;;;8.10;99.90;;;;;;5049850;28;20028;-64
2022/11/18 04:31:15;;;;;;;3.60;0.40;;;8.10;99.90;;;;;;5059231;28;20152;-64
2022/11/18 04:33:40;;;;;;;3.30;0.55;;;8.10;99.90;;;;;;5063840;28;20032;-64
2022/11/18 04:36:06;;;;;;;2.47;0.45;;;8.10;99.90;;;;;;5045683;28;20036;-64
2022/11/18 04:38:32;;;;;;;4.35;0.45;;;8.10;99.90;;;;;;5050196;28;20443;-64
2022/11/18 04:40:58;;;;;;;5.43;0.30;;;8.10;99.90;;;;;;5052859;28;20105;-64
2022/11/18 04:43:23;;;;;;;3.28;0.35;;;8.00;99.90;;;;;;5051048;28;20461;-65
2022/11/18 04:45:49;;;;;;;2.00;0.43;;;8.10;99.90;;;;;;5050656;28;20032;-65
2022/11/18 04:48:15;;;;;;;1.80;0.57;;;8.00;99.90;;;;;;5046269;28;20056;-65
2022/11/18 04:50:40;;;;;;;4.38;0.60;;;8.00;99.90;;;;;;5060505;28;20488;-64
2022/11/18 04:53:06;;;;;;;1.73;0.40;;;8.10;99.90;;;;;;5059584;28;20027;-64
2022/11/18 04:55:35;;;;;;;3.60;1.13;;;8.10;99.90;;;;;;5050358;28;20017;-64
2022/11/18 04:58:00;;;;;;;2.75;0.40;;;8.10;99.90;;;;;;5059061;28;20060;-64
2022/11/18 05:00:26;;;;;;;1.48;0.55;;;8.10;99.90;;;;;;5058316;28;20056;-64
2022/11/18 05:02:52;;;;;;;1.40;0.20;;;8.10;99.90;;;;;;5050005;28;20033;-64
2022/11/18 05:05:18;;;;;;;2.90;0.70;;;8.10;99.90;;;;;;5055514;28;20537;-65
2022/11/18 05:07:43;;;;;;;2.67;0.47;;;8.00;99.90;;;;;;5061740;28;20033;-65
2022/11/18 05:10:09;;;;;;;0.25;0.22;;;8.00;99.90;;;;;;5053633;28;20078;-65
2022/11/18 05:12:51;;;;;;;1.20;0.30;;;8.00;99.90;;;;;;5057841;28;20039;-64
2022/11/18 05:15:19;;;;;;;0.55;0.32;;;7.90;99.90;;;;;;5055542;28;20048;-64
2022/11/18 05:17:45;;;;;;;2.85;0.90;;;8.00;99.90;;;;;;5055048;28;20048;-64
2022/11/18 05:20:12;;;;;;;3.88;0.30;;;8.10;99.90;;;;;;5063204;28;20032;-65
2022/11/18 05:22:38;;;;;;;1.85;0.60;;;8.00;99.90;;;;;;5064317;28;20035;-64
2022/11/18 05:25:05;;;;;;;0.52;0.30;;;7.90;99.90;;;;;;5054878;28;20387;-65
2022/11/18 05:27:30;;;;;;;0.80;0.30;;;7.90;99.90;;;;;;5050998;28;20116;-64
2022/11/18 05:29:56;;;;;;;1.60;0.30;;;7.80;99.90;;;;;;5057142;28;20166;-64
2022/11/18 05:32:22;;;;;;;3.33;0.38;;;7.80;99.90;;;;;;5058012;28;20017;-65
2022/11/18 05:34:48;;;;;;;1.27;0.45;;;7.70;99.90;;;;;;5058097;28;20086;-65
2022/11/18 05:37:13;;;;;;;3.28;0.40;;;7.70;99.90;;;;;;5057458;28;20063;-64
2022/11/18 05:39:39;;;;;;;2.13;0.65;;;7.70;99.90;;;;;;5056187;28;20091;-65
2022/11/18 05:44:50;;;;;;;1.92;0.40;;;7.70;99.90;;;;;;5045584;28;20095;-65
2022/11/18 05:47:19;;;;;;;5.43;0.65;;;7.80;99.90;;;;;;5056680;28;20119;-65
2022/11/18 05:49:45;;;;;;;1.48;0.40;;;7.70;99.90;;;;;;5056746;28;20392;-63
2022/11/18 05:52:11;;;;;;;2.28;0.32;;;7.70;99.90;;;;;;5057739;28;20087;-64
2022/11/18 05:54:48;;;;;;;1.75;0.20;;;7.70;99.90;;;;;;5052533;28;20106;-64
2022/11/18 05:57:13;;;;;;;0.85;0.25;;;7.50;99.90;;;;;;5050484;28;20473;-65
2022/11/18 05:59:39;;;;;;;1.08;0.47;;;7.50;99.90;;;;;;5057935;28;20039;-64
2022/11/18 06:02:17;;;;;;;1.58;0.40;;;7.40;99.90;;;;;;5052100;28;20032;-64
2022/11/18 06:04:49;;;;;;;7.57;0.75;;;7.30;99.90;;;;;;5056896;28;20040;-65
2022/11/18 06:07:17;;;;;;;1.52;0.35;;;7.30;99.90;;;;;;5052298;28;20108;-64
2022/11/18 06:09:49;;;;;;;5.45;0.82;;;7.30;99.90;;;;;;5042000;28;20032;-65
2022/11/18 06:12:18;;;;;;;2.28;0.63;;;7.30;99.90;;;;;;5055867;28;20029;-65
2022/11/18 06:14:56;;;;;;;3.00;0.57;;;7.30;99.90;;;;;;5043995;28;20642;-64
2022/11/18 06:17:26;;;;;;;2.65;0.68;;;7.30;99.90;;;;;;5052847;28;20476;-65
2022/11/18 06:19:52;;;;;;;2.75;0.50;;;7.20;99.90;;;;;;5054621;28;20036;-66
2022/11/18 06:22:18;;;;;;;3.08;0.35;;;7.20;99.90;;;;;;5055196;28;20392;-65
2022/11/18 06:24:44;;;;;;;3.55;0.73;;;7.30;99.90;;;;;;5047342;28;20120;-64
2022/11/18 06:27:11;;;;;;;1.98;0.52;;;7.20;99.90;;;;;;5048863;28;20112;-65
2022/11/18 06:29:37;;;;;;;2.67;0.85;;;7.20;99.90;;;;;;5055784;28;20041;-64
2022/11/18 06:32:03;;;;;;;5.80;1.25;;;7.30;99.90;;;;;;5050952;28;20029;-65
2022/11/18 06:34:28;;;;;;;2.50;0.65;;;7.20;99.90;;;;;;5051773;28;20358;-64
2022/11/18 06:36:54;;;;;;;3.85;0.75;;;7.30;99.90;;;;;;5044228;28;20064;-64
2022/11/18 06:39:20;;;;;;;2.40;0.50;;;7.30;99.90;;;;;;5047010;28;20048;-65
2022/11/18 06:41:45;;;;;;;4.47;0.95;;;7.30;99.90;;;;;;5050894;28;20045;-65
2022/11/18 06:44:12;;;;;;;3.00;0.60;;;7.30;99.90;;;;;;5053903;28;20542;-64
2022/11/18 06:46:58;;;;;;;2.35;0.60;;;7.20;99.90;;;;;;5054428;28;20056;-64
2022/11/18 06:49:26;;;;;;;4.95;0.50;;;7.30;99.90;;;;;;5062952;28;20041;-64
2022/11/18 06:51:52;;;;;;;3.72;0.57;;;7.30;99.90;;;;;;5050765;28;20021;-65
2022/11/18 06:54:17;;;;;;;4.22;0.50;;;7.30;99.90;;;;;;5058535;28;20391;-65
2022/11/18 06:56:43;;;;;;;1.40;0.47;;;7.30;99.90;;;;;;5051335;28;20146;-64
2022/11/18 06:59:09;;;;;;;2.60;0.40;;;7.20;99.90;;;;;;5057060;28;20079;-66
2022/11/18 07:01:37;;;;;;;3.97;1.00;;;7.30;99.90;;;;;;5047256;28;20029;-65
2022/11/18 07:04:03;;;;;;;2.70;0.60;;;7.30;99.90;;;;;;5056394;28;20039;-66
2022/11/18 07:06:32;;;;;;;3.40;1.10;;;7.30;99.90;;;;;;5057579;28;20031;-63
2022/11/18 07:09:00;;;;;;;5.22;1.25;;;7.30;99.90;;;;;;5054688;28;20033;-63
2022/11/18 07:11:26;;;;;;;8.02;1.00;;;7.40;99.90;;;;;;5054394;28;20025;-64
2022/11/18 07:13:52;;;;;;;3.90;0.73;;;7.30;99.90;;;;;;5055736;28;20025;-63
2022/11/18 07:16:24;;;;;;;2.30;0.77;;;7.40;99.90;;;;;;5046329;28;20484;-64
2022/11/18 07:18:51;;;;;;;5.00;1.02;;;7.40;99.90;;;;;;5045623;28;20126;-66
2022/11/18 07:21:21;;;;;;;7.60;2.90;;;7.50;99.90;;;;;;5046825;28;20021;-66
2022/11/18 07:23:47;;;;;;;3.70;0.40;;;7.50;99.90;;;;;;5055695;28;20028;-65
2022/11/18 07:26:13;;;;;;;6.63;1.45;;;7.50;99.90;;;;;;5050883;28;20043;-65
2022/11/18 07:28:40;;;;;;;3.67;0.80;;;7.60;99.90;;;;;;5052177;28;20092;-64
2022/11/18 07:31:11;;;;;;;8.32;1.08;;;7.60;99.90;;;;;;5053943;28;20036;-64
2022/11/18 07:33:37;;;;;;;4.43;0.73;;;7.70;99.90;;;;;;5054258;28;20024;-65
2022/11/18 07:36:15;;;;;;;3.50;0.80;;;7.60;99.90;;;;;;5064750;28;20483;-65
2022/11/18 07:38:41;;;;;;;5.88;0.40;;;7.70;99.90;;;;;;5045230;28;20064;-64
2022/11/18 07:41:13;;;;;;;2.97;1.15;;;7.70;99.90;;;;;;5047429;28;20036;-64
2022/11/18 07:43:39;;;;;;;4.55;0.60;;;7.80;99.90;;;;;;5053851;28;20032;-67
2022/11/18 07:46:33;;;;;;;2.15;0.43;;;7.80;99.90;;;;;;5053540;28;20120;-67
2022/11/18 07:49:02;;;;;;;5.25;1.05;;;7.80;99.90;;;;;;5051029;28;20029;-68
2022/11/18 07:51:30;;;;;;;8.52;0.77;;;7.90;99.90;;;;;;5052031;28;20088;-68
2022/11/18 07:53:56;;;;;;;1.92;0.60;;;7.90;99.90;;;;;;5057842;28;20033;-68
2022/11/18 07:56:22;;;;;;;3.28;0.90;;;8.00;99.90;;;;;;5057150;28;20032;-68
2022/11/18 07:58:52;;;;;;;2.03;0.85;;;8.00;99.90;;;;;;5048489;28;20045;-68
2022/11/18 08:01:21;;;;;;;5.45;1.02;;;8.00;99.90;;;;;;5046755;28;20357;-67
2022/11/18 08:03:47;;;;;;;3.10;0.60;;;8.00;99.90;;;;;;5038857;28;20036;-67
2022/11/18 08:06:15;;;;;;;1.60;0.40;;;8.10;99.90;;;;;;5048269;28;20745;-68
2022/11/18 08:08:41;;;;;;;68.13;23.63;;;8.20;99.90;;;;;;5042904;28;20025;-68
2022/11/18 08:11:09;;;;;;;4.65;1.75;;;8.10;99.90;;;;;;5050246;28;20033;-68
2022/11/18 08:13:35;;;;;;;3.25;0.80;;;8.10;99.90;;;;;;5048742;28;20496;-68
2022/11/18 08:16:01;;;;;;;5.90;1.40;;;8.10;99.90;;;;;;5047468;28;20044;-68
2022/11/18 08:18:29;;;;;;;7.25;1.33;;;8.10;99.90;;;;;;5079895;28;20061;-68
2022/11/18 08:20:55;;;;;;;4.38;1.23;;;8.10;99.90;;;;;;5043846;28;20028;-68
2022/11/18 08:23:20;;;;;;;9.48;0.90;;;8.10;99.90;;;;;;5046518;28;20025;-68
2022/11/18 08:25:46;;;;;;;4.65;1.05;;;8.10;99.90;;;;;;5052587;28;20037;-68
2022/11/18 08:28:14;;;;;;;5.15;0.55;;;8.10;99.90;;;;;;5050740;28;20032;-71
2022/11/18 08:30:40;;;;;;;6.75;1.00;;;8.20;99.90;;;;;;5050631;28;20028;-70
2022/11/18 08:33:06;;;;;;;1.77;0.43;;;8.20;99.90;;;;;;5052922;28;20033;-69
2022/11/18 08:35:32;;;;;;;4.18;0.85;;;8.20;99.90;;;;;;5049442;28;20055;-69
2022/11/18 08:37:58;;;;;;;7.05;1.08;;;8.30;99.90;;;;;;5045182;28;20040;-69
2022/11/18 08:40:24;;;;;;;4.40;0.93;;;8.30;99.90;;;;;;5048036;28;20492;-68
2022/11/18 08:42:50;;;;;;;7.15;0.60;;;8.30;99.90;;;;;;5047903;28;20039;-68
2022/11/18 08:45:16;;;;;;;8.27;1.65;;;8.40;99.90;;;;;;5040909;28;20028;-69
2022/11/18 08:47:42;;;;;;;2.97;0.55;;;8.50;99.90;;;;;;5049958;28;20024;-69
2022/11/18 08:50:09;;;;;;;2.08;0.65;;;8.50;99.90;;;;;;5056626;28;20035;-70
2022/11/18 08:52:35;;;;;;;3.20;0.35;;;8.50;99.90;;;;;;5050452;28;20395;-70
2022/11/18 08:55:02;;;;;;;3.25;0.35;;;8.60;99.90;;;;;;5051749;28;20033;-68
2022/11/18 08:57:27;;;;;;;4.95;1.23;;;8.50;99.90;;;;;;5054657;28;20037;-68
2022/11/18 08:59:53;;;;;;;5.78;1.27;;;8.60;99.90;;;;;;5050806;28;20035;-66
2022/11/18 09:02:21;;;;;;;3.35;0.63;;;8.70;99.90;;;;;;5054509;28;20481;-65
2022/11/18 09:04:47;;;;;;;3.95;0.70;;;8.80;99.90;;;;;;5051758;28;20033;-64
2022/11/18 09:07:13;;;;;;;6.63;0.60;;;8.70;99.90;;;;;;5049612;28;20053;-63
2022/11/18 09:09:39;;;;;;;4.35;1.92;;;8.80;99.90;;;;;;5049263;28;20080;-63
2022/11/18 09:12:05;;;;;;;4.10;0.95;;;8.90;99.90;;;;;;5049270;28;20033;-63
2022/11/18 09:14:31;;;;;;;1.70;0.32;;;8.90;99.90;;;;;;5048411;28;20029;-62
2022/11/18 09:16:57;;;;;;;3.40;0.75;;;9.00;99.90;;;;;;5049920;28;20036;-63
2022/11/18 09:19:22;;;;;;;4.88;0.70;;;9.00;99.90;;;;;;5051390;28;20036;-62
2022/11/18 09:21:48;;;;;;;4.28;0.68;;;9.00;99.90;;;;;;5046209;28;20021;-63
2022/11/18 09:24:14;;;;;;;4.40;0.80;;;9.10;99.90;;;;;;5045731;28;20040;-63
2022/11/18 09:26:40;;;;;;;4.88;1.77;;;9.10;99.90;;;;;;5047435;28;20025;-65
2022/11/18 09:29:07;;;;;;;6.30;1.48;;;9.10;99.90;;;;;;5051480;28;20033;-65
2022/11/18 09:31:33;;;;;;;3.75;0.93;;;9.20;99.90;;;;;;5063642;28;20054;-64
2022/11/18 09:33:59;;;;;;;2.20;0.40;;;9.20;99.90;;;;;;5050109;28;20495;-64
2022/11/18 09:36:26;;;;;;;2.53;0.60;;;9.20;99.90;;;;;;5054313;28;20025;-65
2022/11/18 09:38:52;;;;;;;3.45;1.00;;;9.20;99.90;;;;;;5052806;28;20067;-64
2022/11/18 09:41:46;;;;;;;7.45;1.30;;;9.30;99.90;;;;;;5045848;28;20144;-64
2022/11/18 09:44:47;;;;;;;1.77;0.63;;;9.30;99.90;;;;;;5049860;28;20036;-65
2022/11/18 09:47:32;;;;;;;1.55;0.63;;;9.30;99.90;;;;;;5053529;28;20091;-65
2022/11/18 09:50:04;;;;;;;4.28;1.02;;;9.40;99.90;;;;;;5057985;28;20429;-64
2022/11/18 09:52:45;;;;;;;2.40;0.38;;;9.40;99.90;;;;;;5049259;28;20033;-64
2022/11/18 09:55:17;;;;;;;3.15;1.13;;;9.40;99.90;;;;;;5047511;28;20499;-64
2022/11/18 09:57:49;;;;;;;3.67;0.68;;;9.60;99.90;;;;;;5053577;28;20043;-64
2022/11/18 10:00:21;;;;;;;2.65;0.50;;;9.60;99.90;;;;;;5044773;28;20024;-64
2022/11/18 10:03:05;;;;;;;4.25;0.75;;;9.70;99.90;;;;;;5047986;28;20037;-64
2022/11/18 10:05:45;;;;;;;1.67;0.60;;;9.70;99.90;;;;;;5047731;28;20040;-64
2022/11/18 10:08:21;;;;;;;4.30;0.68;;;9.80;99.90;;;;;;5043295;28;20139;-64
2022/11/18 10:11:06;;;;;;;3.70;0.60;;;9.80;99.90;;;;;;5049128;28;20500;-64
2022/11/18 10:14:00;;;;;;;2.28;0.55;;;9.90;99.90;;;;;;5045745;28;20098;-64
2022/11/18 10:16:48;;;;;;;3.05;1.50;;;9.90;99.90;;;;;;5043737;28;20111;-64
2022/11/18 10:19:34;;;;;;;3.45;0.60;;;9.90;99.90;;;;;;5045553;28;20135;-64
2022/11/18 10:22:18;;;;;;;3.08;0.60;;;10.00;99.90;;;;;;5048442;28;20052;-64
2022/11/18 10:24:56;;;;;;;5.78;0.40;;;10.00;99.90;;;;;;5047073;28;20136;-64
2022/11/18 10:27:32;;;;;;;2.00;0.40;;;10.10;99.90;;;;;;5050234;28;20037;-63
2022/11/18 10:30:00;;;;;;;2.03;0.60;;;10.20;99.90;;;;;;5045042;28;20403;-64
2022/11/18 10:32:26;;;;;;;3.58;0.60;;;10.30;99.90;;;;;;5047231;28;20032;-64
2022/11/18 10:34:54;;;;;;;3.72;0.60;;;10.30;99.90;;;;;;5048717;28;20025;-65
2022/11/18 10:37:25;;;;;;;3.03;0.50;;;10.30;99.90;;;;;;5048462;28;20037;-64
2022/11/18 10:40:00;;;;;;;3.22;0.70;;;10.30;99.90;;;;;;5050571;28;20511;-65
2022/11/18 10:42:36;;;;;;;8.63;3.45;;;10.40;99.90;;;;;;5050294;28;20098;-64
2022/11/18 10:45:14;;;;;;;1.00;0.47;;;10.50;99.90;;;;;;5047114;28;20100;-64
2022/11/18 10:47:40;;;;;;;3.90;0.60;;;10.50;99.90;;;;;;5052671;28;20029;-64
2022/11/18 10:50:33;;;;;;;4.03;0.75;;;10.50;99.90;;;;;;5043168;28;20052;-64
2022/11/18 10:53:00;;;;;;;7.05;0.95;;;10.60;99.90;;;;;;5048886;28;20041;-63
2022/11/18 10:55:27;;;;;;;5.18;0.47;;;10.70;99.90;;;;;;5051810;28;20064;-64
2022/11/18 10:58:15;;;;;;;3.13;0.95;;;10.80;99.90;;;;;;5048639;28;20124;-64
2022/11/18 11:00:42;;;;;;;3.20;1.02;;;10.90;99.90;;;;;;5038179;28;20063;-64
2022/11/18 11:03:37;;;;;;;1.92;0.70;;;11.00;99.90;;;;;;5054084;28;20040;-64
2022/11/18 11:06:26;;;;;;;2.42;0.40;;;11.20;99.90;;;;;;5040537;28;20040;-64
2022/11/18 11:09:27;;;;;;;0.98;0.22;;;11.70;99.90;;;;;;5051432;28;20033;-64
2022/11/18 11:12:08;;;;;;;4.25;0.75;;;12.40;99.90;;;;;;5029568;28;20045;-63
2022/11/18 11:14:45;;;;;;;4.82;1.35;;;13.00;99.90;;;;;;5050130;28;20120;-63
2022/11/18 11:17:29;;;;;;;3.85;0.50;;;13.50;99.90;;;;;;5053871;28;20082;-63
2022/11/18 11:20:06;;;;;;;3.17;1.05;;;13.80;99.90;;;;;;5046319;28;20124;-64
2022/11/18 11:22:32;;;;;;;3.08;0.85;;;14.10;99.90;;;;;;5057808;28;20218;-64
2022/11/18 11:24:57;;;;;;;1.23;0.45;;;14.50;99.90;;;;;;5038884;28;20053;-64
2022/11/18 11:27:43;;;;;;;2.10;0.40;;;14.50;99.90;;;;;;5044428;28;20376;-64
2022/11/18 11:30:19;;;;;;;2.67;0.60;;;14.40;99.90;;;;;;5047665;28;20035;-65
2022/11/18 11:33:04;;;;;;;2.97;0.85;;;14.40;99.90;;;;;;5054571;28;20031;-65
2022/11/18 11:35:40;;;;;;;2.97;0.60;;;14.60;99.90;;;;;;5057961;28;20549;-64
2022/11/18 11:38:12;;;;;;;3.75;0.45;;;14.70;99.90;;;;;;5052511;28;20060;-64
2022/11/18 11:41:06;;;;;;;3.35;0.50;;;14.40;99.90;;;;;;5054535;28;20018;-64
2022/11/18 11:43:55;;;;;;;2.28;0.45;;;14.90;99.90;;;;;;5042329;28;20123;-65
2022/11/18 11:47:45;;;;;;;3.15;0.70;;;15.00;99.90;;;;;;5053549;28;20380;-65
2022/11/18 11:49:58;;;;;;;2.40;0.57;;;14.70;99.90;;;;;;5045277;28;20075;-65
2022/11/18 11:53:05;;;;;;;1.30;0.55;;;14.60;99.90;;;;;;5062141;28;20033;-65
2022/11/18 11:56:10;;;;;;;1.65;0.60;;;14.50;99.90;;;;;;5042135;28;20017;-65
2022/11/18 11:58:55;;;;;;;1.70;0.30;;;15.00;99.90;;;;;;5045425;28;20544;-65
2022/11/18 12:01:35;;;;;;;2.05;0.75;;;15.10;99.90;;;;;;5056756;28;20017;-65
2022/11/18 12:04:14;;;;;;;1.50;0.47;;;15.50;99.90;;;;;;5042304;28;20101;-65
2022/11/18 12:06:41;;;;;;;2.03;1.10;;;15.50;99.90;;;;;;5038767;28;20071;-65
2022/11/18 12:09:38;;;;;;;0.90;0.30;;;15.60;99.90;;;;;;5047800;28;20548;-65
2022/11/18 12:12:04;;;;;;;2.42;0.95;;;15.10;99.90;;;;;;5042004;28;20021;-63
2022/11/18 12:14:52;;;;;;;1.65;0.45;;;15.20;99.90;;;;;;5045675;28;20050;-65
2022/11/18 12:17:25;;;;;;;2.90;0.50;;;15.60;99.90;;;;;;5041602;28;20178;-65
2022/11/18 12:19:52;;;;;;;1.35;0.40;;;15.70;99.90;;;;;;5050348;28;20049;-66
2022/11/18 12:22:18;;;;;;;1.55;0.30;;;16.30;99.90;;;;;;5046754;28;20025;-64
2022/11/18 12:24:44;;;;;;;3.10;0.65;;;16.10;99.90;;;;;;5051179;28;20028;-64
2022/11/18 12:27:29;;;;;;;2.63;0.57;;;16.50;99.90;;;;;;5061076;28;20039;-65
2022/11/18 12:30:00;;;;;;;1.67;0.57;;;15.90;99.90;;;;;;5049964;28;20040;-65
2022/11/18 12:32:45;;;;;;;1.02;0.40;;;15.80;99.90;;;;;;5053243;28;20029;-65
2022/11/18 12:35:11;;;;;;;3.88;1.30;;;16.20;99.90;;;;;;5055360;28;20064;-64
2022/11/18 12:37:56;;;;;;;5.40;1.48;;;16.30;99.90;;;;;;5062783;28;20037;-65
2022/11/18 12:40:43;;;;;;;5.28;1.63;;;16.10;99.90;;;;;;5046461;28;20401;-65
2022/11/18 12:46:30;;;;;;;2.35;0.80;;;16.20;99.90;;;;;;5048101;28;20063;-65
2022/11/18 12:48:56;;;;;;;0.80;0.50;;;16.10;99.90;;;;;;5027210;28;20039;-65
2022/11/18 12:51:23;;;;;;;1.48;0.77;;;16.10;99.90;;;;;;5047713;28;20488;-64
2022/11/18 12:53:50;;;;;;;2.55;0.73;;;16.20;99.90;;;;;;5047390;28;20064;-65
2022/11/18 12:56:16;;;;;;;4.63;1.13;;;16.40;99.90;;;;;;5048229;28;20579;-66
2022/11/18 12:58:47;;;;;;;2.40;0.55;;;16.70;99.90;;;;;;5042852;28;20112;-64
2022/11/18 13:01:17;;;;;;;0.65;0.60;;;17.00;99.90;;;;;;5048086;28;20487;-65
2022/11/18 13:03:46;;;;;;;2.58;0.40;;;17.00;99.90;;;;;;5055954;28;20063;-65
2022/11/18 13:06:28;;;;;;;4.93;0.85;;;16.30;99.90;;;;;;5058066;28;20103;-65
2022/11/18 13:09:15;;;;;;;1.20;0.50;;;16.70;99.90;;;;;;5054190;28;20298;-65
2022/11/18 13:11:51;;;;;;;2.30;0.40;;;16.80;99.90;;;;;;5048927;28;20400;-65
2022/11/18 13:18:03;;;;;;;5.07;0.88;;;17.10;99.90;;;;;;5058748;28;20071;-63
2022/11/18 13:20:40;;;;;;;0.45;0.20;;;17.00;99.90;;;;;;5012638;28;20084;-66
2022/11/18 13:26:01;;;;;;;3.25;0.50;;;16.70;99.90;;;;;;5011646;28;20054;-64
2022/11/18 13:28:31;;;;;;;2.67;0.30;;;16.90;99.90;;;;;;5004145;28;20030;-65
2022/11/18 13:30:57;;;;;;;1.65;0.45;;;16.80;99.90;;;;;;5015595;28;20045;-66
2022/11/18 13:33:23;;;;;;;0.90;0.40;;;17.00;99.90;;;;;;5011485;28;20034;-64
2022/11/18 13:35:49;;;;;;;1.65;0.30;;;17.10;99.70;;;;;;5004777;28;20120;-65
2022/11/18 13:38:24;;;;;;;1.80;0.50;;;17.30;99.00;;;;;;4997938;28;20061;-64